sensor_id;sensor_type;location;lat;lon;timestamp;temperature;humidity
13998;DHT22;7074;51.508;7.018;2023-11-22T00:02:17;8.30;99.90
13998;DHT22;7074;51.508;7.018;2023-11-22T00:04:46;8.40;99.90
13998;DHT22;7074;51.508;7.018;2023-11-22T00:07:13;8.50;99.90
13998;DHT22;7074;51.508;7.018;2023-11-22T00:09:40;8.50;99.90
13998;DHT22;7074;51.508;7.018;2023-11-22T00:12:09;8.40;99.90
13998;DHT22;7074;51.508;7.018;2023-11-22T00:14:36;8.50;99.90
13998;DHT22;7074;51.508;7.018;2023-11-22T00:17:04;8.50;99.90
13998;DHT22;7074;51.508;7.018;2023-11-22T00:19:31;8.40;99.90
13998;DHT22;7074;51.508;7.018;2023-11-22T00:21:59;8.40;99.90
13998;DHT22;7074;51.508;7.018;2023-11-22T00:24:28;8.50;99.90
13998;DHT22;7074;51.508;7.018;2023-11-22T00:26:56;8.50;99.90
13998;DHT22;7074;51.508;7.018;2023-11-22T00:29:24;8.50;99.90
13998;DHT22;7074;51.508;7.018;2023-11-22T00:31:51;8.50;99.90
13998;DHT22;7074;51.508;7.018;2023-11-22T00:34:18;8.50;99.90
13998;DHT22;7074;51.508;7.018;2023-11-22T00:36:46;8.50;99.90
13998;DHT22;7074;51.508;7.018;2023-11-22T00:39:14;8.50;99.90
13998;DHT22;7074;51.508;7.018;2023-11-22T00:41:42;8.50;99.90
13998;DHT22;7074;51.508;7.018;2023-11-22T00:44:09;8.50;99.90
13998;DHT22;7074;51.508;7.018;2023-11-22T00:46:38;8.60;99.90
13998;DHT22;7074;51.508;7.018;2023-11-22T00:49:06;8.50;99.90
13998;DHT22;7074;51.508;7.018;2023-11-22T00:51:34;8.40;99.90
13998;DHT22;7074;51.508;7.018;2023-11-22T00:54:01;8.40;99.90
13998;DHT22;7074;51.508;7.018;2023-11-22T00:56:28;8.40;99.90
13998;DHT22;7074;51.508;7.018;2023-11-22T00:58:55;8.40;99.90
13998;DHT22;7074;51.508;7.018;2023-11-22T01:01:25;8.30;99.90
13998;DHT22;7074;51.508;7.018;2023-11-22T01:03:54;8.30;99.90
13998;DHT22;7074;51.508;7.018;2023-11-22T01:06:21;8.30;99.90
13998;DHT22;7074;51.508;7.018;2023-11-22T01:08:49;8.20;99.90
13998;DHT22;7074;51.508;7.018;2023-11-22T01:11:16;8.20;99.90
13998;DHT22;7074;51.508;7.018;2023-11-22T01:13:43;8.20;99.90
13998;DHT22;7074;51.508;7.018;2023-11-22T01:16:12;8.20;99.90
13998;DHT22;7074;51.508;7.018;2023-11-22T01:18:39;8.20;99.90
13998;DHT22;7074;51.508;7.018;2023-11-22T01:21:08;8.20;99.90
13998;DHT22;7074;51.508;7.018;2023-11-22T01:23:36;8.20;99.90
13998;DHT22;7074;51.508;7.018;2023-11-22T01:26:03;8.10;99.90
13998;DHT22;7074;51.508;7.018;2023-11-22T01:28:31;8.10;99.90
13998;DHT22;7074;51.508;7.018;2023-11-22T01:31:00;8.10;99.90
13998;DHT22;7074;51.508;7.018;2023-11-22T01:33:28;8.00;99.90
13998;DHT22;7074;51.508;7.018;2023-11-22T01:35:55;8.00;99.90
13998;DHT22;7074;51.508;7.018;2023-11-22T01:38:23;8.00;99.90
13998;DHT22;7074;51.508;7.018;2023-11-22T01:40:51;7.80;99.90
13998;DHT22;7074;51.508;7.018;2023-11-22T01:43:20;7.70;99.90
13998;DHT22;7074;51.508;7.018;2023-11-22T01:45:49;7.80;99.90
13998;DHT22;7074;51.508;7.018;2023-11-22T01:48:17;7.70;99.90
13998;DHT22;7074;51.508;7.018;2023-11-22T01:50:44;7.60;99.90
13998;DHT22;7074;51.508;7.018;2023-11-22T01:53:12;7.40;99.90
13998;DHT22;7074;51.508;7.018;2023-11-22T01:55:42;7.50;99.90
13998;DHT22;7074;51.508;7.018;2023-11-22T01:58:10;7.40;99.90
13998;DHT22;7074;51.508;7.018;2023-11-22T02:00:45;7.40;99.90
13998;DHT22;7074;51.508;7.018;2023-11-22T02:03:12;7.20;99.90
13998;DHT22;7074;51.508;7.018;2023-11-22T02:05:40;7.30;99.90
13998;DHT22;7074;51.508;7.018;2023-11-22T02:08:09;7.40;99.90
13998;DHT22;7074;51.508;7.018;2023-11-22T02:10:37;7.50;99.90
13998;DHT22;7074;51.508;7.018;2023-11-22T02:13:06;7.50;99.90
13998;DHT22;7074;51.508;7.018;2023-11-22T02:15:34;7.50;99.90
13998;DHT22;7074;51.508;7.018;2023-11-22T02:18:01;7.50;99.90
13998;DHT22;7074;51.508;7.018;2023-11-22T02:20:29;7.60;99.90
13998;DHT22;7074;51.508;7.018;2023-11-22T02:22:56;7.50;99.90
13998;DHT22;7074;51.508;7.018;2023-11-22T02:25:26;7.50;99.90
13998;DHT22;7074;51.508;7.018;2023-11-22T02:27:53;7.50;99.90
13998;DHT22;7074;51.508;7.018;2023-11-22T02:30:20;7.40;99.90
13998;DHT22;7074;51.508;7.018;2023-11-22T02:32:50;7.50;99.90
13998;DHT22;7074;51.508;7.018;2023-11-22T02:35:17;7.50;99.90
13998;DHT22;7074;51.508;7.018;2023-11-22T02:37:44;7.50;99.90
13998;DHT22;7074;51.508;7.018;2023-11-22T02:40:16;7.60;99.90
13998;DHT22;7074;51.508;7.018;2023-11-22T02:42:46;7.60;99.90
13998;DHT22;7074;51.508;7.018;2023-11-22T02:45:14;7.50;99.90
13998;DHT22;7074;51.508;7.018;2023-11-22T02:47:42;7.50;99.90
13998;DHT22;7074;51.508;7.018;2023-11-22T02:50:12;7.40;99.90
13998;DHT22;7074;51.508;7.018;2023-11-22T02:52:39;7.30;99.90
13998;DHT22;7074;51.508;7.018;2023-11-22T02:55:07;7.40;99.90
13998;DHT22;7074;51.508;7.018;2023-11-22T02:57:35;7.30;99.90
13998;DHT22;7074;51.508;7.018;2023-11-22T03:00:06;7.30;99.90
13998;DHT22;7074;51.508;7.018;2023-11-22T03:02:34;7.30;99.90
13998;DHT22;7074;51.508;7.018;2023-11-22T03:05:03;7.30;99.90
13998;DHT22;7074;51.508;7.018;2023-11-22T03:07:31;7.40;99.90
13998;DHT22;7074;51.508;7.018;2023-11-22T03:09:58;7.30;99.90
13998;DHT22;7074;51.508;7.018;2023-11-22T03:12:26;7.30;99.90
13998;DHT22;7074;51.508;7.018;2023-11-22T03:14:54;7.30;99.90
13998;DHT22;7074;51.508;7.018;2023-11-22T03:17:28;7.20;99.90
13998;DHT22;7074;51.508;7.018;2023-11-22T03:19:56;7.20;99.90
13998;DHT22;7074;51.508;7.018;2023-11-22T03:22:23;7.10;99.90
13998;DHT22;7074;51.508;7.018;2023-11-22T03:24:50;7.10;99.90
13998;DHT22;7074;51.508;7.018;2023-11-22T03:27:18;7.00;99.90
13998;DHT22;7074;51.508;7.018;2023-11-22T03:29:47;7.00;99.90
13998;DHT22;7074;51.508;7.018;2023-11-22T03:32:15;6.90;99.90
13998;DHT22;7074;51.508;7.018;2023-11-22T03:34:45;6.90;99.90
13998;DHT22;7074;51.508;7.018;2023-11-22T03:37:12;6.90;99.90
13998;DHT22;7074;51.508;7.018;2023-11-22T03:39:39;6.90;99.90
13998;DHT22;7074;51.508;7.018;2023-11-22T03:42:14;6.90;99.90
13998;DHT22;7074;51.508;7.018;2023-11-22T03:44:44;6.90;99.90
13998;DHT22;7074;51.508;7.018;2023-11-22T03:47:11;6.90;99.90
13998;DHT22;7074;51.508;7.018;2023-11-22T03:49:39;6.90;99.90
13998;DHT22;7074;51.508;7.018;2023-11-22T03:52:08;6.80;99.90
13998;DHT22;7074;51.508;7.018;2023-11-22T03:54:35;6.80;99.90
13998;DHT22;7074;51.508;7.018;2023-11-22T03:57:03;6.80;99.90
13998;DHT22;7074;51.508;7.018;2023-11-22T03:59:30;6.70;99.90
13998;DHT22;7074;51.508;7.018;2023-11-22T04:01:58;6.70;99.90
13998;DHT22;7074;51.508;7.018;2023-11-22T04:04:25;6.70;99.90
13998;DHT22;7074;51.508;7.018;2023-11-22T04:06:52;6.70;99.90
13998;DHT22;7074;51.508;7.018;2023-11-22T04:09:22;6.70;99.90
13998;DHT22;7074;51.508;7.018;2023-11-22T04:11:49;6.60;99.90
13998;DHT22;7074;51.508;7.018;2023-11-22T04:14:16;6.60;99.90
13998;DHT22;7074;51.508;7.018;2023-11-22T04:16:46;6.60;99.90
13998;DHT22;7074;51.508;7.018;2023-11-22T04:19:13;6.60;99.90
13998;DHT22;7074;51.508;7.018;2023-11-22T04:21:40;6.60;99.90
13998;DHT22;7074;51.508;7.018;2023-11-22T04:24:08;6.60;99.90
13998;DHT22;7074;51.508;7.018;2023-11-22T04:26:36;6.60;99.90
13998;DHT22;7074;51.508;7.018;2023-11-22T04:29:04;6.60;99.90
13998;DHT22;7074;51.508;7.018;2023-11-22T04:31:31;6.60;99.90
13998;DHT22;7074;51.508;7.018;2023-11-22T04:33:58;6.50;99.90
13998;DHT22;7074;51.508;7.018;2023-11-22T04:36:26;6.50;99.90
13998;DHT22;7074;51.508;7.018;2023-11-22T04:38:53;6.50;99.90
13998;DHT22;7074;51.508;7.018;2023-11-22T04:41:20;6.40;99.90
13998;DHT22;7074;51.508;7.018;2023-11-22T04:43:49;6.40;99.90
13998;DHT22;7074;51.508;7.018;2023-11-22T04:46:17;6.40;99.90
13998;DHT22;7074;51.508;7.018;2023-11-22T04:48:44;6.40;99.90
13998;DHT22;7074;51.508;7.018;2023-11-22T04:51:14;6.40;99.90
13998;DHT22;7074;51.508;7.018;2023-11-22T04:53:42;6.40;99.90
13998;DHT22;7074;51.508;7.018;2023-11-22T04:56:10;6.40;99.90
13998;DHT22;7074;51.508;7.018;2023-11-22T04:58:37;6.30;99.90
13998;DHT22;7074;51.508;7.018;2023-11-22T05:01:05;6.30;99.90
13998;DHT22;7074;51.508;7.018;2023-11-22T05:03:35;6.20;99.90
13998;DHT22;7074;51.508;7.018;2023-11-22T05:06:03;6.30;99.90
13998;DHT22;7074;51.508;7.018;2023-11-22T05:08:30;6.20;99.90
13998;DHT22;7074;51.508;7.018;2023-11-22T05:10:57;6.30;99.90
13998;DHT22;7074;51.508;7.018;2023-11-22T05:13:25;6.30;99.90
13998;DHT22;7074;51.508;7.018;2023-11-22T05:15:52;6.20;99.90
13998;DHT22;7074;51.508;7.018;2023-11-22T05:18:20;6.20;99.90
13998;DHT22;7074;51.508;7.018;2023-11-22T05:20:48;6.10;99.90
13998;DHT22;7074;51.508;7.018;2023-11-22T05:23:15;6.10;99.90
13998;DHT22;7074;51.508;7.018;2023-11-22T05:25:42;6.10;99.90
13998;DHT22;7074;51.508;7.018;2023-11-22T05:28:10;6.10;99.90
13998;DHT22;7074;51.508;7.018;2023-11-22T05:30:37;6.10;99.90
13998;DHT22;7074;51.508;7.018;2023-11-22T05:33:04;6.20;99.90
13998;DHT22;7074;51.508;7.018;2023-11-22T05:35:33;6.10;99.90
13998;DHT22;7074;51.508;7.018;2023-11-22T05:38:00;6.00;99.90
13998;DHT22;7074;51.508;7.018;2023-11-22T05:40:28;6.00;99.90
13998;DHT22;7074;51.508;7.018;2023-11-22T05:42:55;5.90;99.90
13998;DHT22;7074;51.508;7.018;2023-11-22T05:45:22;5.90;99.90
13998;DHT22;7074;51.508;7.018;2023-11-22T05:47:51;5.80;99.90
13998;DHT22;7074;51.508;7.018;2023-11-22T05:50:18;5.80;99.90
13998;DHT22;7074;51.508;7.018;2023-11-22T05:52:47;5.80;99.90
13998;DHT22;7074;51.508;7.018;2023-11-22T05:55:14;5.70;99.90
13998;DHT22;7074;51.508;7.018;2023-11-22T05:57:41;5.80;99.90
13998;DHT22;7074;51.508;7.018;2023-11-22T06:00:10;5.70;99.90
13998;DHT22;7074;51.508;7.018;2023-11-22T06:02:38;5.70;99.90
13998;DHT22;7074;51.508;7.018;2023-11-22T06:05:06;5.60;99.90
13998;DHT22;7074;51.508;7.018;2023-11-22T06:07:33;5.60;99.90
13998;DHT22;7074;51.508;7.018;2023-11-22T06:10:02;5.60;99.90
13998;DHT22;7074;51.508;7.018;2023-11-22T06:12:29;5.60;99.90
13998;DHT22;7074;51.508;7.018;2023-11-22T06:14:56;5.60;99.90
13998;DHT22;7074;51.508;7.018;2023-11-22T06:17:23;5.50;99.90
13998;DHT22;7074;51.508;7.018;2023-11-22T06:19:51;5.40;99.90
13998;DHT22;7074;51.508;7.018;2023-11-22T06:22:18;5.40;99.90
13998;DHT22;7074;51.508;7.018;2023-11-22T06:24:45;5.40;99.90
13998;DHT22;7074;51.508;7.018;2023-11-22T06:27:14;5.30;99.90
13998;DHT22;7074;51.508;7.018;2023-11-22T06:29:42;5.20;99.90
13998;DHT22;7074;51.508;7.018;2023-11-22T06:32:10;5.20;99.90
13998;DHT22;7074;51.508;7.018;2023-11-22T06:34:37;5.10;99.90
13998;DHT22;7074;51.508;7.018;2023-11-22T06:37:04;5.10;99.90
13998;DHT22;7074;51.508;7.018;2023-11-22T06:39:34;5.20;99.90
13998;DHT22;7074;51.508;7.018;2023-11-22T06:42:03;5.10;99.90
13998;DHT22;7074;51.508;7.018;2023-11-22T06:44:32;5.10;99.90
13998;DHT22;7074;51.508;7.018;2023-11-22T06:47:00;5.00;99.90
13998;DHT22;7074;51.508;7.018;2023-11-22T06:49:27;5.10;99.90
13998;DHT22;7074;51.508;7.018;2023-11-22T06:51:55;5.10;99.90
13998;DHT22;7074;51.508;7.018;2023-11-22T06:54:23;5.00;99.90
13998;DHT22;7074;51.508;7.018;2023-11-22T06:56:50;5.00;99.90
13998;DHT22;7074;51.508;7.018;2023-11-22T06:59:18;5.00;99.90
13998;DHT22;7074;51.508;7.018;2023-11-22T07:01:47;5.00;99.90
13998;DHT22;7074;51.508;7.018;2023-11-22T07:04:14;4.90;99.90
13998;DHT22;7074;51.508;7.018;2023-11-22T07:06:42;4.80;99.90
13998;DHT22;7074;51.508;7.018;2023-11-22T07:09:09;4.80;99.90
13998;DHT22;7074;51.508;7.018;2023-11-22T07:11:37;4.80;99.90
13998;DHT22;7074;51.508;7.018;2023-11-22T07:14:04;4.80;99.90
13998;DHT22;7074;51.508;7.018;2023-11-22T07:16:32;4.80;99.90
13998;DHT22;7074;51.508;7.018;2023-11-22T07:19:00;4.80;99.90
13998;DHT22;7074;51.508;7.018;2023-11-22T07:21:28;4.80;99.90
13998;DHT22;7074;51.508;7.018;2023-11-22T07:23:56;4.90;99.90
13998;DHT22;7074;51.508;7.018;2023-11-22T07:26:24;4.80;99.90
13998;DHT22;7074;51.508;7.018;2023-11-22T07:28:53;4.80;99.90
13998;DHT22;7074;51.508;7.018;2023-11-22T07:31:20;4.80;99.90
13998;DHT22;7074;51.508;7.018;2023-11-22T07:33:48;4.80;99.90
13998;DHT22;7074;51.508;7.018;2023-11-22T07:36:17;4.80;99.90
13998;DHT22;7074;51.508;7.018;2023-11-22T07:38:46;4.80;99.90
13998;DHT22;7074;51.508;7.018;2023-11-22T07:41:15;4.70;99.90
13998;DHT22;7074;51.508;7.018;2023-11-22T07:43:42;4.70;99.90
13998;DHT22;7074;51.508;7.018;2023-11-22T07:46:10;4.70;99.90
13998;DHT22;7074;51.508;7.018;2023-11-22T07:48:39;4.70;99.90
13998;DHT22;7074;51.508;7.018;2023-11-22T07:51:07;4.80;99.90
13998;DHT22;7074;51.508;7.018;2023-11-22T07:53:36;4.70;99.90
13998;DHT22;7074;51.508;7.018;2023-11-22T07:56:06;4.70;99.90
13998;DHT22;7074;51.508;7.018;2023-11-22T07:58:34;4.70;99.90
13998;DHT22;7074;51.508;7.018;2023-11-22T08:01:02;4.80;99.90
13998;DHT22;7074;51.508;7.018;2023-11-22T08:03:31;4.80;99.90
13998;DHT22;7074;51.508;7.018;2023-11-22T08:06:00;5.00;99.90
13998;DHT22;7074;51.508;7.018;2023-11-22T08:08:28;5.00;99.90
13998;DHT22;7074;51.508;7.018;2023-11-22T08:10:57;5.10;99.90
13998;DHT22;7074;51.508;7.018;2023-11-22T08:13:24;5.10;99.90
13998;DHT22;7074;51.508;7.018;2023-11-22T08:15:52;5.20;99.90
13998;DHT22;7074;51.508;7.018;2023-11-22T08:18:20;5.30;99.90
13998;DHT22;7074;51.508;7.018;2023-11-22T08:20:47;5.30;99.90
13998;DHT22;7074;51.508;7.018;2023-11-22T08:23:15;5.30;99.90
13998;DHT22;7074;51.508;7.018;2023-11-22T08:25:43;5.40;99.90
13998;DHT22;7074;51.508;7.018;2023-11-22T08:28:13;5.50;99.90
13998;DHT22;7074;51.508;7.018;2023-11-22T08:30:40;5.50;99.90
13998;DHT22;7074;51.508;7.018;2023-11-22T08:33:08;5.60;99.90
13998;DHT22;7074;51.508;7.018;2023-11-22T08:35:35;5.60;99.90
13998;DHT22;7074;51.508;7.018;2023-11-22T08:38:02;5.60;99.90
13998;DHT22;7074;51.508;7.018;2023-11-22T08:40:30;5.70;99.90
13998;DHT22;7074;51.508;7.018;2023-11-22T08:42:58;5.70;99.90
13998;DHT22;7074;51.508;7.018;2023-11-22T08:45:26;5.80;99.90
13998;DHT22;7074;51.508;7.018;2023-11-22T08:47:55;5.80;99.90
13998;DHT22;7074;51.508;7.018;2023-11-22T08:50:22;5.90;99.90
13998;DHT22;7074;51.508;7.018;2023-11-22T08:52:49;5.90;99.90
13998;DHT22;7074;51.508;7.018;2023-11-22T08:55:18;5.80;99.90
13998;DHT22;7074;51.508;7.018;2023-11-22T08:57:48;5.90;99.90
13998;DHT22;7074;51.508;7.018;2023-11-22T09:00:17;6.00;99.90
13998;DHT22;7074;51.508;7.018;2023-11-22T09:02:50;6.00;99.90
13998;DHT22;7074;51.508;7.018;2023-11-22T09:05:17;6.10;99.90
13998;DHT22;7074;51.508;7.018;2023-11-22T09:07:44;6.20;99.90
13998;DHT22;7074;51.508;7.018;2023-11-22T09:10:12;6.30;99.90
13998;DHT22;7074;51.508;7.018;2023-11-22T09:12:41;6.30;99.90
13998;DHT22;7074;51.508;7.018;2023-11-22T09:15:10;6.40;99.90
13998;DHT22;7074;51.508;7.018;2023-11-22T09:17:39;6.50;99.90
13998;DHT22;7074;51.508;7.018;2023-11-22T09:20:10;6.40;99.90
13998;DHT22;7074;51.508;7.018;2023-11-22T09:22:42;6.50;99.90
13998;DHT22;7074;51.508;7.018;2023-11-22T09:25:11;6.60;99.90
13998;DHT22;7074;51.508;7.018;2023-11-22T09:27:38;6.70;99.90
13998;DHT22;7074;51.508;7.018;2023-11-22T09:30:07;6.70;99.90
13998;DHT22;7074;51.508;7.018;2023-11-22T09:32:43;6.80;99.90
13998;DHT22;7074;51.508;7.018;2023-11-22T09:35:13;6.80;99.90
13998;DHT22;7074;51.508;7.018;2023-11-22T09:37:41;6.80;99.90
13998;DHT22;7074;51.508;7.018;2023-11-22T09:40:11;6.80;99.90
13998;DHT22;7074;51.508;7.018;2023-11-22T09:42:39;6.90;99.90
13998;DHT22;7074;51.508;7.018;2023-11-22T09:45:08;6.90;99.90
13998;DHT22;7074;51.508;7.018;2023-11-22T09:47:38;6.90;99.90
13998;DHT22;7074;51.508;7.018;2023-11-22T09:50:17;6.90;99.90
13998;DHT22;7074;51.508;7.018;2023-11-22T09:53:11;6.80;99.90
13998;DHT22;7074;51.508;7.018;2023-11-22T09:56:38;6.80;99.90
13998;DHT22;7074;51.508;7.018;2023-11-22T09:59:27;7.00;99.90
13998;DHT22;7074;51.508;7.018;2023-11-22T10:01:55;7.00;99.90
13998;DHT22;7074;51.508;7.018;2023-11-22T10:04:25;7.20;99.90
13998;DHT22;7074;51.508;7.018;2023-11-22T10:06:59;7.20;99.90
13998;DHT22;7074;51.508;7.018;2023-11-22T10:09:28;7.20;99.90
13998;DHT22;7074;51.508;7.018;2023-11-22T10:12:01;7.30;99.90
13998;DHT22;7074;51.508;7.018;2023-11-22T10:14:30;7.30;99.90
13998;DHT22;7074;51.508;7.018;2023-11-22T10:17:02;7.30;99.90
13998;DHT22;7074;51.508;7.018;2023-11-22T10:19:31;7.30;99.90
13998;DHT22;7074;51.508;7.018;2023-11-22T10:22:05;7.40;99.90
13998;DHT22;7074;51.508;7.018;2023-11-22T10:24:34;7.30;99.90
13998;DHT22;7074;51.508;7.018;2023-11-22T10:27:02;7.40;99.90
13998;DHT22;7074;51.508;7.018;2023-11-22T10:29:30;7.40;99.90
13998;DHT22;7074;51.508;7.018;2023-11-22T10:31:57;7.60;99.90
13998;DHT22;7074;51.508;7.018;2023-11-22T10:34:25;7.60;99.90
13998;DHT22;7074;51.508;7.018;2023-11-22T10:36:55;7.70;99.90
13998;DHT22;7074;51.508;7.018;2023-11-22T10:39:25;7.80;99.90
13998;DHT22;7074;51.508;7.018;2023-11-22T10:42:00;7.80;99.90
13998;DHT22;7074;51.508;7.018;2023-11-22T10:44:29;7.80;99.90
13998;DHT22;7074;51.508;7.018;2023-11-22T10:47:00;7.50;99.90
13998;DHT22;7074;51.508;7.018;2023-11-22T10:49:29;7.30;99.90
13998;DHT22;7074;51.508;7.018;2023-11-22T10:51:57;7.50;99.90
13998;DHT22;7074;51.508;7.018;2023-11-22T10:54:25;7.60;99.90
13998;DHT22;7074;51.508;7.018;2023-11-22T10:56:56;7.80;99.90
13998;DHT22;7074;51.508;7.018;2023-11-22T10:59:36;7.90;99.90
13998;DHT22;7074;51.508;7.018;2023-11-22T11:02:08;7.90;99.90
13998;DHT22;7074;51.508;7.018;2023-11-22T11:04:49;7.80;98.90
13998;DHT22;7074;51.508;7.018;2023-11-22T11:07:21;7.90;99.90
13998;DHT22;7074;51.508;7.018;2023-11-22T11:09:55;7.90;99.90
13998;DHT22;7074;51.508;7.018;2023-11-22T11:12:24;8.00;99.90
13998;DHT22;7074;51.508;7.018;2023-11-22T11:14:52;8.10;99.90
13998;DHT22;7074;51.508;7.018;2023-11-22T11:17:20;8.20;99.90
13998;DHT22;7074;51.508;7.018;2023-11-22T11:19:49;8.30;99.90
13998;DHT22;7074;51.508;7.018;2023-11-22T11:22:18;8.30;99.80
13998;DHT22;7074;51.508;7.018;2023-11-22T11:24:48;8.30;99.90
13998;DHT22;7074;51.508;7.018;2023-11-22T11:27:15;8.40;99.70
13998;DHT22;7074;51.508;7.018;2023-11-22T11:29:46;8.40;99.40
13998;DHT22;7074;51.508;7.018;2023-11-22T11:32:30;8.40;98.60
13998;DHT22;7074;51.508;7.018;2023-11-22T11:34:58;8.40;99.20
13998;DHT22;7074;51.508;7.018;2023-11-22T11:37:32;8.30;99.20
13998;DHT22;7074;51.508;7.018;2023-11-22T11:39:59;8.20;98.30
13998;DHT22;7074;51.508;7.018;2023-11-22T11:42:27;8.40;98.00
13998;DHT22;7074;51.508;7.018;2023-11-22T11:45:06;8.40;97.50
13998;DHT22;7074;51.508;7.018;2023-11-22T11:47:36;8.40;97.40
13998;DHT22;7074;51.508;7.018;2023-11-22T11:50:04;8.50;98.50
13998;DHT22;7074;51.508;7.018;2023-11-22T11:52:32;8.70;98.80
13998;DHT22;7074;51.508;7.018;2023-11-22T11:55:01;8.80;98.20
13998;DHT22;7074;51.508;7.018;2023-11-22T11:57:32;8.80;97.00
13998;DHT22;7074;51.508;7.018;2023-11-22T12:00:07;8.80;96.30
13998;DHT22;7074;51.508;7.018;2023-11-22T12:02:39;8.70;95.00
13998;DHT22;7074;51.508;7.018;2023-11-22T12:05:09;8.70;95.20
13998;DHT22;7074;51.508;7.018;2023-11-22T12:07:37;8.80;95.70
13998;DHT22;7074;51.508;7.018;2023-11-22T12:10:08;8.60;96.80
13998;DHT22;7074;51.508;7.018;2023-11-22T12:12:39;8.60;97.00
13998;DHT22;7074;51.508;7.018;2023-11-22T12:15:09;8.50;98.00
13998;DHT22;7074;51.508;7.018;2023-11-22T12:17:48;8.50;97.70
13998;DHT22;7074;51.508;7.018;2023-11-22T12:20:17;8.50;98.80
13998;DHT22;7074;51.508;7.018;2023-11-22T12:22:47;8.60;99.80
13998;DHT22;7074;51.508;7.018;2023-11-22T12:25:15;8.70;99.90
13998;DHT22;7074;51.508;7.018;2023-11-22T12:27:54;8.90;99.90
13998;DHT22;7074;51.508;7.018;2023-11-22T12:30:31;8.90;99.90
13998;DHT22;7074;51.508;7.018;2023-11-22T12:33:04;8.90;99.40
13998;DHT22;7074;51.508;7.018;2023-11-22T12:35:42;8.90;98.40
13998;DHT22;7074;51.508;7.018;2023-11-22T12:38:34;9.10;99.90
13998;DHT22;7074;51.508;7.018;2023-11-22T12:41:06;9.00;98.80
13998;DHT22;7074;51.508;7.018;2023-11-22T12:43:36;9.10;99.30
13998;DHT22;7074;51.508;7.018;2023-11-22T12:46:10;9.00;99.90
13998;DHT22;7074;51.508;7.018;2023-11-22T12:48:45;9.10;99.10
13998;DHT22;7074;51.508;7.018;2023-11-22T12:51:15;9.10;99.50
13998;DHT22;7074;51.508;7.018;2023-11-22T12:53:45;9.20;98.80
13998;DHT22;7074;51.508;7.018;2023-11-22T12:56:16;9.20;97.70
13998;DHT22;7074;51.508;7.018;2023-11-22T12:58:43;9.20;96.30
13998;DHT22;7074;51.508;7.018;2023-11-22T13:01:12;9.30;96.90
13998;DHT22;7074;51.508;7.018;2023-11-22T13:03:40;9.30;96.70
13998;DHT22;7074;51.508;7.018;2023-11-22T13:06:08;9.10;96.30
13998;DHT22;7074;51.508;7.018;2023-11-22T13:08:36;9.00;97.70
13998;DHT22;7074;51.508;7.018;2023-11-22T13:11:04;9.10;98.00
13998;DHT22;7074;51.508;7.018;2023-11-22T13:13:33;9.30;98.30
13998;DHT22;7074;51.508;7.018;2023-11-22T13:16:01;9.30;97.60
13998;DHT22;7074;51.508;7.018;2023-11-22T13:18:33;9.40;98.40
13998;DHT22;7074;51.508;7.018;2023-11-22T13:21:06;9.40;98.00
13998;DHT22;7074;51.508;7.018;2023-11-22T13:23:36;9.30;98.20
13998;DHT22;7074;51.508;7.018;2023-11-22T13:26:05;9.20;98.70
13998;DHT22;7074;51.508;7.018;2023-11-22T13:28:35;9.30;99.10
13998;DHT22;7074;51.508;7.018;2023-11-22T13:31:03;9.30;98.70
13998;DHT22;7074;51.508;7.018;2023-11-22T13:33:35;9.40;98.70
13998;DHT22;7074;51.508;7.018;2023-11-22T13:36:05;9.30;98.80
13998;DHT22;7074;51.508;7.018;2023-11-22T13:38:38;9.30;98.90
13998;DHT22;7074;51.508;7.018;2023-11-22T13:41:05;9.30;98.90
13998;DHT22;7074;51.508;7.018;2023-11-22T13:43:33;9.20;98.00
13998;DHT22;7074;51.508;7.018;2023-11-22T13:46:01;9.20;99.10
13998;DHT22;7074;51.508;7.018;2023-11-22T13:48:28;9.30;99.20
13998;DHT22;7074;51.508;7.018;2023-11-22T13:51:07;9.30;98.90
13998;DHT22;7074;51.508;7.018;2023-11-22T13:53:38;9.30;96.50
13998;DHT22;7074;51.508;7.018;2023-11-22T13:56:10;9.20;96.10
13998;DHT22;7074;51.508;7.018;2023-11-22T13:58:40;9.20;96.00
13998;DHT22;7074;51.508;7.018;2023-11-22T14:01:08;9.20;95.10
13998;DHT22;7074;51.508;7.018;2023-11-22T14:03:39;9.20;95.40
13998;DHT22;7074;51.508;7.018;2023-11-22T14:06:12;9.20;96.30
13998;DHT22;7074;51.508;7.018;2023-11-22T14:08:44;9.20;96.20
13998;DHT22;7074;51.508;7.018;2023-11-22T14:11:14;9.20;97.20
13998;DHT22;7074;51.508;7.018;2023-11-22T14:13:42;9.20;96.50
13998;DHT22;7074;51.508;7.018;2023-11-22T14:16:09;9.20;95.70
13998;DHT22;7074;51.508;7.018;2023-11-22T14:18:38;9.20;94.30
13998;DHT22;7074;51.508;7.018;2023-11-22T14:21:06;9.20;94.50
13998;DHT22;7074;51.508;7.018;2023-11-22T14:23:37;9.20;94.70
13998;DHT22;7074;51.508;7.018;2023-11-22T14:26:07;9.20;94.80
13998;DHT22;7074;51.508;7.018;2023-11-22T14:28:36;9.10;94.80
13998;DHT22;7074;51.508;7.018;2023-11-22T14:31:04;9.10;95.70
13998;DHT22;7074;51.508;7.018;2023-11-22T14:33:32;9.10;97.70
13998;DHT22;7074;51.508;7.018;2023-11-22T14:36:01;9.10;96.40
13998;DHT22;7074;51.508;7.018;2023-11-22T14:38:29;9.10;96.70
13998;DHT22;7074;51.508;7.018;2023-11-22T14:40:59;9.10;97.20
13998;DHT22;7074;51.508;7.018;2023-11-22T14:43:27;9.00;96.20
13998;DHT22;7074;51.508;7.018;2023-11-22T14:46:00;9.00;96.70
13998;DHT22;7074;51.508;7.018;2023-11-22T14:48:28;9.00;97.10
13998;DHT22;7074;51.508;7.018;2023-11-22T14:50:55;9.00;97.90
13998;DHT22;7074;51.508;7.018;2023-11-22T14:53:22;9.00;98.10
13998;DHT22;7074;51.508;7.018;2023-11-22T14:55:52;9.00;98.60
13998;DHT22;7074;51.508;7.018;2023-11-22T14:58:25;9.00;96.40
13998;DHT22;7074;51.508;7.018;2023-11-22T15:00:54;9.00;96.80
13998;DHT22;7074;51.508;7.018;2023-11-22T15:03:24;9.00;99.00
13998;DHT22;7074;51.508;7.018;2023-11-22T15:05:53;9.00;98.40
13998;DHT22;7074;51.508;7.018;2023-11-22T15:08:22;8.90;98.20
13998;DHT22;7074;51.508;7.018;2023-11-22T15:10:54;8.90;99.10
13998;DHT22;7074;51.508;7.018;2023-11-22T15:13:21;9.00;97.90
13998;DHT22;7074;51.508;7.018;2023-11-22T15:15:51;8.90;98.80
13998;DHT22;7074;51.508;7.018;2023-11-22T15:18:19;8.90;97.20
13998;DHT22;7074;51.508;7.018;2023-11-22T15:20:46;8.90;97.00
13998;DHT22;7074;51.508;7.018;2023-11-22T15:23:14;8.90;98.00
13998;DHT22;7074;51.508;7.018;2023-11-22T15:25:41;8.90;96.50
13998;DHT22;7074;51.508;7.018;2023-11-22T15:28:08;8.90;95.90
13998;DHT22;7074;51.508;7.018;2023-11-22T15:30:37;8.90;97.10
13998;DHT22;7074;51.508;7.018;2023-11-22T15:33:06;8.90;97.10
13998;DHT22;7074;51.508;7.018;2023-11-22T15:35:33;8.90;97.70
13998;DHT22;7074;51.508;7.018;2023-11-22T15:38:01;8.90;97.30
13998;DHT22;7074;51.508;7.018;2023-11-22T15:40:30;8.90;97.30
13998;DHT22;7074;51.508;7.018;2023-11-22T15:43:01;8.90;96.80
13998;DHT22;7074;51.508;7.018;2023-11-22T15:45:32;8.90;97.40
13998;DHT22;7074;51.508;7.018;2023-11-22T15:48:01;8.90;96.90
13998;DHT22;7074;51.508;7.018;2023-11-22T15:50:31;8.90;97.50
13998;DHT22;7074;51.508;7.018;2023-11-22T15:52:58;8.90;98.70
13998;DHT22;7074;51.508;7.018;2023-11-22T15:55:29;8.90;98.50
13998;DHT22;7074;51.508;7.018;2023-11-22T15:57:56;8.90;97.90
13998;DHT22;7074;51.508;7.018;2023-11-22T16:00:28;8.90;97.90
13998;DHT22;7074;51.508;7.018;2023-11-22T16:02:58;8.90;98.10
13998;DHT22;7074;51.508;7.018;2023-11-22T16:05:29;8.90;99.40
13998;DHT22;7074;51.508;7.018;2023-11-22T16:08:03;8.90;98.60
13998;DHT22;7074;51.508;7.018;2023-11-22T16:10:31;8.90;98.90
13998;DHT22;7074;51.508;7.018;2023-11-22T16:12:59;8.90;99.20
13998;DHT22;7074;51.508;7.018;2023-11-22T16:15:28;8.90;99.90